createdAt,value
2023-08-06T00:00:54.101Z,1.00
2023-08-06T00:03:20.739Z,0.95
2023-08-06T00:05:47.280Z,1.25
2023-08-06T00:08:13.904Z,0.88
2023-08-06T00:10:41.712Z,1.42
2023-08-06T00:13:08.291Z,1.02
2023-08-06T00:15:34.930Z,0.90
2023-08-06T00:18:01.469Z,1.02
2023-08-06T00:20:28.120Z,1.10
2023-08-06T00:22:54.568Z,1.20
2023-08-06T00:25:21.106Z,1.08
2023-08-06T00:27:47.636Z,1.17
2023-08-06T00:30:14.198Z,1.05
2023-08-06T00:32:40.768Z,1.00
2023-08-06T00:35:07.850Z,1.08
2023-08-06T00:37:34.361Z,1.00
2023-08-06T00:40:00.834Z,1.05
2023-08-06T00:42:27.309Z,1.15
2023-08-06T00:44:53.791Z,0.88
2023-08-06T00:47:20.535Z,1.10
2023-08-06T00:49:47.115Z,0.90
2023-08-06T00:52:15.095Z,0.70
2023-08-06T00:54:42.201Z,1.25
2023-08-06T00:57:10.440Z,0.90
2023-08-06T00:59:37.047Z,0.82
2023-08-06T01:02:04.063Z,0.70
2023-08-06T01:04:30.661Z,0.90
2023-08-06T01:07:07.799Z,1.35
2023-08-06T01:10:02.781Z,0.75
2023-08-06T01:12:35.294Z,1.30
2023-08-06T01:15:40.365Z,1.02
2023-08-06T01:18:07.372Z,0.73
2023-08-06T01:20:33.900Z,0.80
2023-08-06T01:23:00.437Z,0.80
2023-08-06T01:25:54.631Z,0.80
2023-08-06T01:28:34.045Z,0.90
2023-08-06T01:31:03.328Z,0.80
2023-08-06T01:33:33.642Z,0.80
2023-08-06T01:36:00.678Z,0.65
2023-08-06T01:38:29.242Z,0.73
2023-08-06T01:40:55.778Z,0.75
2023-08-06T01:43:22.323Z,0.80
2023-08-06T01:45:48.924Z,0.90
2023-08-06T01:48:15.484Z,1.25
2023-08-06T01:50:42.057Z,0.70
2023-08-06T01:53:08.624Z,0.90
2023-08-06T01:55:35.173Z,0.82
2023-08-06T01:58:01.721Z,0.95
2023-08-06T02:00:29.900Z,1.00
2023-08-06T02:02:56.489Z,0.73
2023-08-06T02:05:23.059Z,0.60
2023-08-06T02:07:49.522Z,0.70
2023-08-06T02:10:16.080Z,1.00
2023-08-06T02:12:42.605Z,1.10
2023-08-06T02:15:09.525Z,0.75
2023-08-06T02:17:36.070Z,0.80
2023-08-06T02:20:02.829Z,0.95
2023-08-06T02:22:29.360Z,0.90
2023-08-06T02:24:55.845Z,0.80
2023-08-06T02:27:22.347Z,1.27
2023-08-06T02:29:48.859Z,0.93
2023-08-06T02:32:15.345Z,1.05
2023-08-06T02:34:41.853Z,1.10
2023-08-06T02:37:08.875Z,0.98
2023-08-06T02:39:36.707Z,1.42
2023-08-06T02:42:04.038Z,0.88
2023-08-06T02:44:30.631Z,2.75
2023-08-06T02:46:57.222Z,1.73
2023-08-06T02:49:23.800Z,1.10
2023-08-06T02:51:50.651Z,1.00
2023-08-06T02:54:17.377Z,1.00
2023-08-06T02:56:45.873Z,1.20
2023-08-06T02:59:13.170Z,1.48
2023-08-06T03:01:39.977Z,0.55
2023-08-06T03:04:07.127Z,0.80
2023-08-06T03:06:33.624Z,0.75
2023-08-06T03:09:00.164Z,1.67
2023-08-06T03:11:26.697Z,0.82
2023-08-06T03:13:53.240Z,2.05
2023-08-06T03:16:19.860Z,0.73
2023-08-06T03:18:46.461Z,0.90
2023-08-06T03:21:12.927Z,0.80
2023-08-06T03:23:39.414Z,0.68
2023-08-06T03:26:06.119Z,0.88
2023-08-06T03:28:32.773Z,0.75
2023-08-06T03:31:03.394Z,0.60
2023-08-06T03:33:30.264Z,1.08
2023-08-06T03:35:57.258Z,1.20
2023-08-06T03:38:24.237Z,0.80
2023-08-06T03:40:51.035Z,1.20
2023-08-06T03:43:17.797Z,1.63
2023-08-06T03:45:44.519Z,1.30
2023-08-06T03:48:11.010Z,1.20
2023-08-06T03:50:37.826Z,1.20
2023-08-06T03:53:04.638Z,0.70
2023-08-06T03:55:31.177Z,0.88
2023-08-06T03:57:57.697Z,1.00
2023-08-06T04:00:24.186Z,1.20
2023-08-06T04:02:51.282Z,0.60
2023-08-06T04:05:18.324Z,1.27
2023-08-06T04:07:44.959Z,0.70
2023-08-06T04:10:12.534Z,1.00
2023-08-06T04:12:40.405Z,0.70
2023-08-06T04:15:07.680Z,0.85
2023-08-06T04:17:34.253Z,0.70
2023-08-06T04:20:01.180Z,0.60
2023-08-06T04:22:27.807Z,0.40
2023-08-06T04:24:54.289Z,0.70
2023-08-06T04:27:21.449Z,0.80
2023-08-06T04:29:48.080Z,1.02
2023-08-06T04:32:14.684Z,0.65
2023-08-06T04:34:41.284Z,0.68
2023-08-06T04:37:07.835Z,0.60
2023-08-06T04:39:34.381Z,1.08
2023-08-06T04:42:00.903Z,0.70
2023-08-06T04:44:27.642Z,0.88
2023-08-06T04:46:54.229Z,0.70
2023-08-06T04:49:21.921Z,0.68
2023-08-06T04:51:48.463Z,1.15
2023-08-06T04:54:15.411Z,0.88
2023-08-06T04:56:41.881Z,0.70
2023-08-06T04:59:08.388Z,1.10
2023-08-06T05:01:34.984Z,1.13
2023-08-06T05:04:01.575Z,0.80
2023-08-06T05:06:28.199Z,0.70
2023-08-06T05:08:54.722Z,0.80
2023-08-06T05:11:21.263Z,0.68
2023-08-06T05:13:47.811Z,0.75
2023-08-06T05:16:14.313Z,0.52
2023-08-06T05:18:42.032Z,0.70
2023-08-06T05:21:08.642Z,0.80
2023-08-06T05:23:35.197Z,1.35
2023-08-06T05:26:01.864Z,0.68
2023-08-06T05:28:28.367Z,1.30
2023-08-06T05:30:54.892Z,0.85
2023-08-06T05:33:21.438Z,0.70
2023-08-06T05:35:47.953Z,0.70
2023-08-06T05:38:14.503Z,0.80
2023-08-06T05:40:40.973Z,0.80
2023-08-06T05:43:07.480Z,0.50
2023-08-06T05:45:34.086Z,0.95
2023-08-06T05:48:00.788Z,0.70
2023-08-06T05:50:27.378Z,0.73
2023-08-06T05:52:54.072Z,0.60
2023-08-06T05:55:21.508Z,0.60
2023-08-06T05:57:48.137Z,0.47
2023-08-06T06:00:15.078Z,0.40
2023-08-06T06:02:41.654Z,0.93
2023-08-06T06:05:08.672Z,0.50
2023-08-06T06:07:35.214Z,0.70
2023-08-06T06:10:01.867Z,0.63
2023-08-06T06:12:28.422Z,0.43
2023-08-06T06:14:54.978Z,0.40
2023-08-06T06:17:21.624Z,0.30
2023-08-06T06:19:48.393Z,0.30
2023-08-06T06:22:15.603Z,0.32
2023-08-06T06:24:42.072Z,0.50
2023-08-06T06:27:08.626Z,0.60
2023-08-06T06:29:35.177Z,0.95
2023-08-06T06:32:01.721Z,0.65
2023-08-06T06:34:28.299Z,0.20
2023-08-06T06:36:54.780Z,0.65
2023-08-06T06:39:22.261Z,0.10
2023-08-06T06:41:48.899Z,0.65
2023-08-06T06:44:16.174Z,0.10
2023-08-06T06:46:42.806Z,0.20
2023-08-06T06:49:09.359Z,0.20
2023-08-06T06:51:35.900Z,0.20
2023-08-06T06:54:02.438Z,0.10
2023-08-06T06:56:28.908Z,0.10
2023-08-06T06:58:55.431Z,0.10
2023-08-06T07:01:22.040Z,0.10
2023-08-06T07:03:48.593Z,0.17
2023-08-06T07:06:16.807Z,0.10
2023-08-06T07:08:43.279Z,1.10
2023-08-06T07:11:09.792Z,0.20
2023-08-06T07:13:36.485Z,0.17
2023-08-06T07:16:03.435Z,0.52
2023-08-06T07:18:30.265Z,0.03
2023-08-06T07:20:57.340Z,0.10
2023-08-06T07:23:25.574Z,0.10
2023-08-06T07:25:52.256Z,0.10
2023-08-06T07:28:18.873Z,0.10
2023-08-06T07:30:46.461Z,0.47
2023-08-06T07:33:13.197Z,0.20
2023-08-06T07:35:39.943Z,0.10
2023-08-06T07:38:07.052Z,0.05
2023-08-06T07:40:33.660Z,0.10
2023-08-06T07:43:00.201Z,0.10
2023-08-06T07:45:28.095Z,0.20
2023-08-06T07:47:54.945Z,0.10
2023-08-06T07:50:21.544Z,0.15
2023-08-06T07:52:48.228Z,0.30
2023-08-06T07:55:14.847Z,0.10
2023-08-06T07:57:42.029Z,0.20
2023-08-06T08:00:09.133Z,0.10
2023-08-06T08:02:35.725Z,0.20
2023-08-06T08:05:02.350Z,0.40
2023-08-06T08:07:31.444Z,0.10
2023-08-06T08:09:58.140Z,0.47
2023-08-06T08:12:24.712Z,0.50
2023-08-06T08:14:51.240Z,0.20
2023-08-06T08:17:17.872Z,0.10
2023-08-06T08:19:44.627Z,0.43
2023-08-06T08:22:11.233Z,0.20
2023-08-06T08:24:38.740Z,0.20
2023-08-06T08:27:05.513Z,0.10
2023-08-06T08:29:32.101Z,0.20
2023-08-06T08:31:58.817Z,0.30
2023-08-06T08:34:25.444Z,0.20
2023-08-06T08:36:52.075Z,0.17
2023-08-06T08:39:18.813Z,0.20
2023-08-06T08:41:45.332Z,0.10
2023-08-06T08:44:13.053Z,0.30
2023-08-06T08:46:41.884Z,0.40
2023-08-06T08:49:08.653Z,0.20
2023-08-06T08:51:38.514Z,0.28
2023-08-06T08:54:05.754Z,0.25
2023-08-06T08:56:32.942Z,0.10
2023-08-06T08:59:00.187Z,0.15
2023-08-06T09:01:29.541Z,0.10
2023-08-06T09:03:58.155Z,0.08
2023-08-06T09:06:28.558Z,0.38
2023-08-06T09:09:09.814Z,0.13
2023-08-06T09:11:43.479Z,0.43
2023-08-06T09:14:10.512Z,0.20
2023-08-06T09:16:37.424Z,0.10
2023-08-06T09:19:10.881Z,0.10
2023-08-06T09:21:39.160Z,0.10
2023-08-06T09:24:13.143Z,0.10
2023-08-06T09:26:41.276Z,0.10
2023-08-06T09:29:09.533Z,0.10
2023-08-06T09:31:48.616Z,0.17
2023-08-06T09:34:19.669Z,0.13
2023-08-06T09:37:04.590Z,0.15
2023-08-06T09:39:31.862Z,0.20
2023-08-06T09:42:00.057Z,0.10
2023-08-06T09:44:28.323Z,0.20
2023-08-06T09:46:56.576Z,0.30
2023-08-06T09:49:27.998Z,0.30
2023-08-06T09:51:57.398Z,0.25
2023-08-06T09:54:27.887Z,0.30
2023-08-06T09:56:58.161Z,0.20
2023-08-06T09:59:25.438Z,0.25
2023-08-06T10:01:53.050Z,0.30
2023-08-06T10:04:24.920Z,0.20
2023-08-06T10:06:53.805Z,0.20
2023-08-06T10:09:21.575Z,0.30
2023-08-06T10:11:54.058Z,0.35
2023-08-06T10:14:27.734Z,0.38
2023-08-06T10:16:57.921Z,0.30
2023-08-06T10:19:26.355Z,0.10
2023-08-06T10:22:13.902Z,0.25
2023-08-06T10:24:54.122Z,0.60
2023-08-06T10:27:41.793Z,0.20
2023-08-06T10:30:27.543Z,0.30
2023-08-06T10:32:58.189Z,0.20
2023-08-06T10:35:55.864Z,0.20
2023-08-06T10:38:34.262Z,0.30
2023-08-06T10:41:00.709Z,0.30
2023-08-06T10:43:34.805Z,0.20
2023-08-06T10:46:03.757Z,0.30
2023-08-06T10:48:30.480Z,0.30
2023-08-06T10:50:57.484Z,0.60
2023-08-06T10:53:24.344Z,0.50
2023-08-06T10:55:50.926Z,0.50
2023-08-06T10:58:17.652Z,0.30
2023-08-06T11:00:44.218Z,0.30
2023-08-06T11:03:11.026Z,0.57
2023-08-06T11:05:37.696Z,0.50
2023-08-06T11:08:04.503Z,0.28
2023-08-06T11:10:33.531Z,0.40
2023-08-06T11:13:05.321Z,0.22
2023-08-06T11:15:32.703Z,0.25
2023-08-06T11:17:59.343Z,0.30
2023-08-06T11:20:25.966Z,0.60
2023-08-06T11:22:52.585Z,0.60
2023-08-06T11:25:21.973Z,0.60
2023-08-06T11:27:49.171Z,0.40
2023-08-06T11:30:15.774Z,0.50
2023-08-06T11:32:49.332Z,0.43
2023-08-06T11:35:16.812Z,0.60
2023-08-06T11:37:47.549Z,0.52
2023-08-06T11:40:16.323Z,0.60
2023-08-06T11:42:43.629Z,0.50
2023-08-06T11:45:10.812Z,0.50
2023-08-06T11:47:42.984Z,0.60
2023-08-06T11:50:09.835Z,0.65
2023-08-06T11:52:40.362Z,0.65
2023-08-06T11:55:17.395Z,0.70
2023-08-06T11:57:47.763Z,1.60
2023-08-06T12:00:15.333Z,0.90
2023-08-06T12:02:43.534Z,1.05
2023-08-06T12:05:17.155Z,2.10
2023-08-06T12:07:49.212Z,2.47
2023-08-06T12:10:16.694Z,0.80
2023-08-06T12:12:43.509Z,0.70
2023-08-06T12:15:10.891Z,0.70
2023-08-06T12:17:40.035Z,0.60
2023-08-06T12:20:08.415Z,0.55
2023-08-06T12:22:39.627Z,0.50
2023-08-06T12:25:09.373Z,0.60
2023-08-06T12:27:36.902Z,0.68
2023-08-06T12:30:04.901Z,0.60
2023-08-06T12:32:31.993Z,0.88
2023-08-06T12:34:58.768Z,0.70
2023-08-06T12:37:26.673Z,0.60
2023-08-06T12:39:53.686Z,0.63
2023-08-06T12:42:20.471Z,0.60
2023-08-06T12:44:47.201Z,0.88
2023-08-06T12:47:13.808Z,1.30
2023-08-06T12:49:40.382Z,1.15
2023-08-06T12:52:08.692Z,1.20
2023-08-06T12:54:38.277Z,0.88
2023-08-06T12:57:05.608Z,1.50
2023-08-06T12:59:32.352Z,0.80
2023-08-06T13:01:58.936Z,0.60
2023-08-06T13:04:25.759Z,0.68
2023-08-06T13:06:52.401Z,0.60
2023-08-06T13:09:20.568Z,0.60
2023-08-06T13:11:47.796Z,0.90
2023-08-06T13:14:15.636Z,0.65
2023-08-06T13:16:43.920Z,0.70
2023-08-06T13:19:11.377Z,0.82
2023-08-06T13:22:06.242Z,0.70
2023-08-06T13:24:32.921Z,0.80
2023-08-06T13:26:59.595Z,0.70
2023-08-06T13:29:27.583Z,0.70
2023-08-06T13:31:54.852Z,1.20
2023-08-06T13:34:21.564Z,0.98
2023-08-06T13:36:48.138Z,0.73
2023-08-06T13:39:17.579Z,0.50
2023-08-06T13:41:44.592Z,0.50
2023-08-06T13:44:11.913Z,0.57
2023-08-06T13:46:38.507Z,0.52
2023-08-06T13:49:05.018Z,0.50
2023-08-06T13:51:31.607Z,0.63
2023-08-06T13:53:58.780Z,0.50
2023-08-06T13:56:25.270Z,1.30
2023-08-06T13:58:52.016Z,0.60
2023-08-06T14:01:20.273Z,0.63
2023-08-06T14:03:46.969Z,0.60
2023-08-06T14:06:13.580Z,0.70
2023-08-06T14:08:40.127Z,0.70
2023-08-06T14:11:07.561Z,0.80
2023-08-06T14:13:34.202Z,0.60
2023-08-06T14:16:00.744Z,0.55
2023-08-06T14:18:27.271Z,0.60
2023-08-06T14:20:53.747Z,0.60
2023-08-06T14:23:20.334Z,0.50
2023-08-06T14:25:46.884Z,0.50
2023-08-06T14:28:13.427Z,0.77
2023-08-06T14:30:39.950Z,0.73
2023-08-06T14:33:21.382Z,0.75
2023-08-06T14:35:53.129Z,0.70
2023-08-06T14:38:19.742Z,0.80
2023-08-06T14:40:46.361Z,0.90
2023-08-06T14:43:15.578Z,0.90
2023-08-06T14:45:42.671Z,0.57
2023-08-06T14:48:09.198Z,0.70
2023-08-06T14:50:35.805Z,0.60
2023-08-06T14:53:05.301Z,0.85
2023-08-06T14:55:33.493Z,0.90
2023-08-06T14:58:00.118Z,0.80
2023-08-06T15:00:26.827Z,0.90
2023-08-06T15:02:53.583Z,0.60
2023-08-06T15:05:20.399Z,0.95
2023-08-06T15:07:47.050Z,0.88
2023-08-06T15:10:26.507Z,0.88
2023-08-06T15:12:53.735Z,0.90
2023-08-06T15:15:20.229Z,0.85
2023-08-06T15:17:46.896Z,0.90
2023-08-06T15:20:13.851Z,0.80
2023-08-06T15:22:40.746Z,0.82
2023-08-06T15:25:07.717Z,1.02
2023-08-06T15:27:34.962Z,0.98
2023-08-06T15:30:01.900Z,0.90
2023-08-06T15:32:28.843Z,0.70
2023-08-06T15:34:55.537Z,0.63
2023-08-06T15:37:23.305Z,1.00
2023-08-06T15:39:49.795Z,1.10
2023-08-06T15:42:16.770Z,0.70
2023-08-06T15:44:43.409Z,0.85
2023-08-06T15:47:10.429Z,0.98
2023-08-06T15:49:36.970Z,0.75
2023-08-06T15:52:03.826Z,0.90
2023-08-06T15:54:30.334Z,0.80
2023-08-06T15:56:57.060Z,0.77
2023-08-06T15:59:27.627Z,0.80
2023-08-06T16:01:54.604Z,0.85
2023-08-06T16:04:24.666Z,0.90
2023-08-06T16:06:51.153Z,0.73
2023-08-06T16:09:17.702Z,1.17
2023-08-06T16:11:45.401Z,1.10
2023-08-06T16:14:12.274Z,0.90
2023-08-06T16:16:39.020Z,1.15
2023-08-06T16:19:05.529Z,1.13
2023-08-06T16:21:32.628Z,1.10
2023-08-06T16:23:59.161Z,0.77
2023-08-06T16:26:25.739Z,0.80
2023-08-06T16:28:52.803Z,1.00
2023-08-06T16:31:20.670Z,0.70
2023-08-06T16:33:47.703Z,1.00
2023-08-06T16:36:14.204Z,0.80
2023-08-06T16:38:40.853Z,0.90
2023-08-06T16:41:07.484Z,0.90
2023-08-06T16:43:34.087Z,0.70
2023-08-06T16:46:00.831Z,1.00
2023-08-06T16:48:31.814Z,0.80
2023-08-06T16:51:03.451Z,1.73
2023-08-06T16:53:30.402Z,0.75
2023-08-06T16:56:00.533Z,0.75
2023-08-06T16:58:27.645Z,0.80
2023-08-06T17:00:56.685Z,1.10
2023-08-06T17:03:23.403Z,0.75
2023-08-06T17:05:50.102Z,0.80
2023-08-06T17:08:16.922Z,0.98
2023-08-06T17:10:43.519Z,1.30
2023-08-06T17:13:19.807Z,1.25
2023-08-06T17:15:48.277Z,1.20
2023-08-06T17:18:17.948Z,0.98
2023-08-06T17:20:45.830Z,1.33
2023-08-06T17:23:12.834Z,1.05
2023-08-06T17:25:43.770Z,0.80
2023-08-06T17:28:12.068Z,0.90
2023-08-06T17:30:43.884Z,1.13
2023-08-06T17:33:13.094Z,1.13
2023-08-06T17:35:44.780Z,1.08
2023-08-06T17:38:12.969Z,0.88
2023-08-06T17:40:40.509Z,1.27
2023-08-06T17:43:07.200Z,1.25
2023-08-06T17:45:33.789Z,1.10
2023-08-06T17:48:00.368Z,1.10
2023-08-06T17:50:27.091Z,0.88
2023-08-06T17:52:53.720Z,1.27
2023-08-06T17:55:20.312Z,1.33
2023-08-06T17:57:46.875Z,1.10
2023-08-06T18:00:13.685Z,1.13
2023-08-06T18:02:40.464Z,1.05
2023-08-06T18:05:07.474Z,0.82
2023-08-06T18:07:34.066Z,1.63
2023-08-06T18:10:00.729Z,1.10
2023-08-06T18:12:27.270Z,0.90
2023-08-06T18:14:53.806Z,1.25
2023-08-06T18:17:20.336Z,1.10
2023-08-06T18:19:47.023Z,1.20
2023-08-06T18:22:13.542Z,1.02
2023-08-06T18:24:40.081Z,1.15
2023-08-06T18:27:06.833Z,1.10
2023-08-06T18:29:33.324Z,1.13
2023-08-06T18:31:59.884Z,1.20
2023-08-06T18:34:26.464Z,0.95
2023-08-06T18:36:53.463Z,1.20
2023-08-06T18:39:20.416Z,1.20
2023-08-06T18:41:47.689Z,0.90
2023-08-06T18:44:14.252Z,1.10
2023-08-06T18:46:40.859Z,1.17
2023-08-06T18:49:07.360Z,0.75
2023-08-06T18:51:33.875Z,0.82
2023-08-06T18:54:00.329Z,1.13
2023-08-06T18:56:26.852Z,1.00
2023-08-06T18:58:53.364Z,1.23
2023-08-06T19:01:20.407Z,1.23
2023-08-06T19:03:49.224Z,1.02
2023-08-06T19:06:16.001Z,1.20
2023-08-06T19:08:42.873Z,1.05
2023-08-06T19:11:09.498Z,2.00
2023-08-06T19:13:36.174Z,4.57
2023-08-06T19:16:02.771Z,2.03
2023-08-06T19:18:29.385Z,4.78
2023-08-06T19:20:59.504Z,2.10
2023-08-06T19:23:28.665Z,1.00
2023-08-06T19:25:56.065Z,4.57
2023-08-06T19:28:22.846Z,3.65
2023-08-06T19:30:50.067Z,3.20
2023-08-06T19:33:18.856Z,1.63
2023-08-06T19:35:49.042Z,3.05
2023-08-06T19:38:21.282Z,4.95
2023-08-06T19:40:48.159Z,1.15
2023-08-06T19:43:14.728Z,1.23
2023-08-06T19:45:41.844Z,1.45
2023-08-06T19:48:08.547Z,1.50
2023-08-06T19:50:35.134Z,1.17
2023-08-06T19:53:01.719Z,1.00
2023-08-06T19:55:28.571Z,1.27
2023-08-06T19:57:55.128Z,1.38
2023-08-06T20:00:21.725Z,1.70
2023-08-06T20:02:48.502Z,1.52
2023-08-06T20:05:15.277Z,1.33
2023-08-06T20:07:41.765Z,1.30
2023-08-06T20:10:09.027Z,1.20
2023-08-06T20:12:35.546Z,1.33
2023-08-06T20:15:02.080Z,1.33
2023-08-06T20:17:28.583Z,1.25
2023-08-06T20:19:55.127Z,1.40
2023-08-06T20:22:21.648Z,1.20
2023-08-06T20:24:48.194Z,1.25
2023-08-06T20:27:14.751Z,1.15
2023-08-06T20:29:41.284Z,1.27
2023-08-06T20:32:07.972Z,1.90
2023-08-06T20:34:34.558Z,1.35
2023-08-06T20:37:01.226Z,1.40
2023-08-06T20:39:27.757Z,1.65
2023-08-06T20:41:55.250Z,1.10
2023-08-06T20:44:22.087Z,1.20
2023-08-06T20:46:48.746Z,1.10
2023-08-06T20:49:15.410Z,1.00
2023-08-06T20:51:41.902Z,1.58
2023-08-06T20:54:08.389Z,1.40
2023-08-06T20:56:35.051Z,1.40
2023-08-06T20:59:01.630Z,1.20
2023-08-06T21:01:28.190Z,1.20
2023-08-06T21:03:54.727Z,1.15
2023-08-06T21:06:21.362Z,5.18
2023-08-06T21:08:47.898Z,4.82
2023-08-06T21:11:17.138Z,1.40
2023-08-06T21:13:44.788Z,2.95
2023-08-06T21:16:11.316Z,2.45
2023-08-06T21:18:37.908Z,1.90
2023-08-06T21:21:08.825Z,1.50
2023-08-06T21:23:35.579Z,1.40
2023-08-06T21:26:06.243Z,1.10
2023-08-06T21:28:34.854Z,1.30
2023-08-06T21:31:06.211Z,1.10
2023-08-06T21:33:34.211Z,1.00
2023-08-06T21:36:04.646Z,1.20
2023-08-06T21:38:36.161Z,1.35
2023-08-06T21:41:12.843Z,1.10
2023-08-06T21:43:44.760Z,1.55
2023-08-06T21:46:14.081Z,1.20
2023-08-06T21:48:43.228Z,1.00
2023-08-06T21:51:11.073Z,1.40
2023-08-06T21:53:39.412Z,1.45
2023-08-06T21:56:11.791Z,1.35
2023-08-06T21:58:41.137Z,1.30
2023-08-06T22:01:10.129Z,1.65
2023-08-06T22:03:39.280Z,1.17
2023-08-06T22:06:07.764Z,1.08
2023-08-06T22:08:35.189Z,1.40
2023-08-06T22:11:01.925Z,0.95
2023-08-06T22:13:28.680Z,1.35
2023-08-06T22:15:55.737Z,1.38
2023-08-06T22:18:22.953Z,1.20
2023-08-06T22:20:49.738Z,1.70
2023-08-06T22:23:16.249Z,1.13
2023-08-06T22:25:42.766Z,1.20
2023-08-06T22:28:09.962Z,1.15
2023-08-06T22:30:37.007Z,1.13
2023-08-06T22:33:03.695Z,1.20
2023-08-06T22:35:30.506Z,1.27
2023-08-06T22:37:58.135Z,1.15
2023-08-06T22:40:24.852Z,1.02
2023-08-06T22:42:52.859Z,1.30
2023-08-06T22:45:19.337Z,1.10
2023-08-06T22:47:45.991Z,1.20
2023-08-06T22:50:12.528Z,1.30
2023-08-06T22:52:40.050Z,1.20
2023-08-06T22:55:19.054Z,1.40
2023-08-06T22:57:53.799Z,1.25
2023-08-06T23:00:20.321Z,1.25
2023-08-06T23:02:58.769Z,1.55
2023-08-06T23:05:25.848Z,1.00
2023-08-06T23:07:52.483Z,0.93
2023-08-06T23:10:20.444Z,1.17
2023-08-06T23:12:48.668Z,1.33
2023-08-06T23:15:15.198Z,1.00
2023-08-06T23:17:41.761Z,1.27
2023-08-06T23:20:09.231Z,1.10
2023-08-06T23:22:35.897Z,1.00
2023-08-06T23:25:02.558Z,1.33
2023-08-06T23:27:29.194Z,1.20
2023-08-06T23:29:55.736Z,1.30
2023-08-06T23:32:22.569Z,1.45
2023-08-06T23:34:53.809Z,1.20
2023-08-06T23:37:21.361Z,1.27
2023-08-06T23:39:48.069Z,1.10
2023-08-06T23:42:14.639Z,0.90
2023-08-06T23:44:41.257Z,1.00
2023-08-06T23:47:07.826Z,1.05
2023-08-06T23:49:34.421Z,1.83
2023-08-06T23:52:00.946Z,0.95
2023-08-06T23:54:27.459Z,1.10
2023-08-06T23:56:54.064Z,1.10
2023-08-06T23:59:20.620Z,1.10
